Bryce Canyon Airport
KBCE : rendu visible

Aérodrome :











RETROUVEZ-NOUS SUR...

 
LOGIN :

S'inscrire | Disclaimer

   EN    FR    IT 

 









Légende :    VFR   VFR Marginal   IFR   IFR Intensif   IFR Très Intensif
Visi : 
Plafond : 
>= 8 km
>= 3000ft
5 à 8 km
1000 à 3000 ft
1500m à 5 km
500 à 1000 ft
800 à 1500m
200 à 500 ft
< 800m
< 200 ft
Symboles :   Orages  Brouillard  Fortes neiges  Fortes précipitations  Vent > 20 kt






- Altitude de l'aérodrome : 7590 ft


KBCE - Bryce Canyon

DERNIER METAR :
  • 170953Z AUTO 33011KT 10SM CLR M02/M08 A3036 RMK AO2 SLP218 T10221083 $

METARs EXPIRÉS :
  • 170853Z AUTO 32008KT 10SM CLR M02/M08 A3037 RMK AO2 SLP221 T10171078 51008 $
  • 170753Z AUTO 29008KT 10SM CLR M02/M08 A3036 RMK AO2 SLP220 T10171083 $

TAF KBCE
Valide du 17 à 06h jusqu'au 18 à 06h UTC


170520Z 1706/1806 31010KT P6SM SKC
FM170800 28006KT P6SM SKC
FM171700 34007KT P6SM SKC
FM180300 28006KT P6SM SKC



MET'MAP, la Météo Aéronautique d'un coup d'oeil ! - Copyright ORBIFLY Décembre 2007 - Disclaimer

ORBIFLY MET'MAP TEAM :

Programmation & Développement : Alexandra Zaïnal
Conception & Développement : Baudouin d'Aumeries
Co-Programmation & Développement : Marc-Olivier Méhu
Soutien technique & logistique : Manuel Goepfert

Contact : metmap@orbifly.com




SOURCES & CREDITS :

   NOAA       Earth
Advisory